sensor_id;sensor_type;location;lat;lon;timestamp;temperature;humidity
39751;DHT22;37579;51.074;17.004;2022-09-14T00:02:06;24.40;62.90
39751;DHT22;37579;51.074;17.004;2022-09-14T00:04:32;24.40;62.80
39751;DHT22;37579;51.074;17.004;2022-09-14T00:06:58;24.40;62.80
39751;DHT22;37579;51.074;17.004;2022-09-14T00:09:24;24.40;62.80
39751;DHT22;37579;51.074;17.004;2022-09-14T00:11:51;24.40;62.80
39751;DHT22;37579;51.074;17.004;2022-09-14T00:14:18;24.40;62.70
39751;DHT22;37579;51.074;17.004;2022-09-14T00:16:44;24.40;62.80
39751;DHT22;37579;51.074;17.004;2022-09-14T00:19:21;24.40;62.80
39751;DHT22;37579;51.074;17.004;2022-09-14T00:21:55;24.40;62.70
39751;DHT22;37579;51.074;17.004;2022-09-14T00:24:22;24.40;62.80
39751;DHT22;37579;51.074;17.004;2022-09-14T00:26:48;24.40;62.70
39751;DHT22;37579;51.074;17.004;2022-09-14T00:29:15;24.40;62.80
39751;DHT22;37579;51.074;17.004;2022-09-14T00:31:41;24.40;62.90
39751;DHT22;37579;51.074;17.004;2022-09-14T00:34:09;24.40;62.80
39751;DHT22;37579;51.074;17.004;2022-09-14T00:36:43;24.40;62.80
39751;DHT22;37579;51.074;17.004;2022-09-14T00:39:10;24.40;62.80
39751;DHT22;37579;51.074;17.004;2022-09-14T00:41:40;24.40;62.80
39751;DHT22;37579;51.074;17.004;2022-09-14T00:46:54;24.40;62.70
39751;DHT22;37579;51.074;17.004;2022-09-14T00:49:30;24.40;62.80
39751;DHT22;37579;51.074;17.004;2022-09-14T00:54:25;24.40;62.70
39751;DHT22;37579;51.074;17.004;2022-09-14T00:56:51;24.40;62.70
39751;DHT22;37579;51.074;17.004;2022-09-14T00:59:21;24.40;62.80
39751;DHT22;37579;51.074;17.004;2022-09-14T01:01:48;24.40;62.80
39751;DHT22;37579;51.074;17.004;2022-09-14T01:04:15;24.40;62.80
39751;DHT22;37579;51.074;17.004;2022-09-14T01:06:55;24.30;62.70
39751;DHT22;37579;51.074;17.004;2022-09-14T01:17:15;24.30;62.70
39751;DHT22;37579;51.074;17.004;2022-09-14T01:28:42;24.30;62.80
39751;DHT22;37579;51.074;17.004;2022-09-14T01:31:19;24.30;62.80
39751;DHT22;37579;51.074;17.004;2022-09-14T01:34:11;24.30;62.70
39751;DHT22;37579;51.074;17.004;2022-09-14T01:36:40;24.30;62.70
39751;DHT22;37579;51.074;17.004;2022-09-14T01:39:08;24.30;62.70
39751;DHT22;37579;51.074;17.004;2022-09-14T01:41:36;24.30;62.60
39751;DHT22;37579;51.074;17.004;2022-09-14T01:44:24;24.30;62.60
39751;DHT22;37579;51.074;17.004;2022-09-14T01:46:59;24.30;62.60
39751;DHT22;37579;51.074;17.004;2022-09-14T01:49:31;24.30;62.70
39751;DHT22;37579;51.074;17.004;2022-09-14T01:52:03;24.30;62.70
39751;DHT22;37579;51.074;17.004;2022-09-14T01:54:42;24.30;62.70
39751;DHT22;37579;51.074;17.004;2022-09-14T01:57:24;24.30;62.70
39751;DHT22;37579;51.074;17.004;2022-09-14T01:59:53;24.30;62.60
39751;DHT22;37579;51.074;17.004;2022-09-14T02:02:28;24.30;62.60
39751;DHT22;37579;51.074;17.004;2022-09-14T02:05:19;24.30;62.60
39751;DHT22;37579;51.074;17.004;2022-09-14T02:07:46;24.30;62.60
39751;DHT22;37579;51.074;17.004;2022-09-14T02:10:13;24.30;62.70
39751;DHT22;37579;51.074;17.004;2022-09-14T02:12:40;24.30;62.70
39751;DHT22;37579;51.074;17.004;2022-09-14T02:15:07;24.30;62.60
39751;DHT22;37579;51.074;17.004;2022-09-14T02:17:33;24.30;62.70
39751;DHT22;37579;51.074;17.004;2022-09-14T02:20:00;24.30;62.70
39751;DHT22;37579;51.074;17.004;2022-09-14T02:22:29;24.30;62.70
39751;DHT22;37579;51.074;17.004;2022-09-14T02:24:56;24.30;62.70
39751;DHT22;37579;51.074;17.004;2022-09-14T02:27:22;24.30;62.70
39751;DHT22;37579;51.074;17.004;2022-09-14T02:29:48;24.30;63.00
39751;DHT22;37579;51.074;17.004;2022-09-14T02:32:36;24.30;62.60
39751;DHT22;37579;51.074;17.004;2022-09-14T02:44:34;24.30;62.60
39751;DHT22;37579;51.074;17.004;2022-09-14T02:46:54;24.30;62.50
39751;DHT22;37579;51.074;17.004;2022-09-14T02:50:02;24.30;62.60
39751;DHT22;37579;51.074;17.004;2022-09-14T02:52:51;24.30;62.60
39751;DHT22;37579;51.074;17.004;2022-09-14T02:55:20;24.30;62.60
39751;DHT22;37579;51.074;17.004;2022-09-14T02:58:14;24.30;62.60
39751;DHT22;37579;51.074;17.004;2022-09-14T03:00:42;24.30;62.60
39751;DHT22;37579;51.074;17.004;2022-09-14T03:03:10;24.30;62.60
39751;DHT22;37579;51.074;17.004;2022-09-14T03:05:36;24.30;62.60
39751;DHT22;37579;51.074;17.004;2022-09-14T03:08:03;24.30;62.60
39751;DHT22;37579;51.074;17.004;2022-09-14T03:10:29;24.30;62.50
39751;DHT22;37579;51.074;17.004;2022-09-14T03:12:56;24.30;62.50
39751;DHT22;37579;51.074;17.004;2022-09-14T03:15:21;24.30;62.60
39751;DHT22;37579;51.074;17.004;2022-09-14T03:17:48;24.30;62.50
39751;DHT22;37579;51.074;17.004;2022-09-14T03:20:15;24.30;62.60
39751;DHT22;37579;51.074;17.004;2022-09-14T03:22:41;24.30;62.60
39751;DHT22;37579;51.074;17.004;2022-09-14T03:25:07;24.30;62.60
39751;DHT22;37579;51.074;17.004;2022-09-14T03:27:33;24.30;63.10
39751;DHT22;37579;51.074;17.004;2022-09-14T03:29:59;24.30;62.60
39751;DHT22;37579;51.074;17.004;2022-09-14T03:32:25;24.30;62.60
39751;DHT22;37579;51.074;17.004;2022-09-14T03:34:50;24.30;62.70
39751;DHT22;37579;51.074;17.004;2022-09-14T03:37:16;24.30;62.50
39751;DHT22;37579;51.074;17.004;2022-09-14T03:39:42;24.30;62.80
39751;DHT22;37579;51.074;17.004;2022-09-14T03:42:08;24.30;62.70
39751;DHT22;37579;51.074;17.004;2022-09-14T03:44:33;24.30;64.30
39751;DHT22;37579;51.074;17.004;2022-09-14T03:46:59;24.30;64.30
39751;DHT22;37579;51.074;17.004;2022-09-14T03:49:25;24.30;64.90
39751;DHT22;37579;51.074;17.004;2022-09-14T03:51:51;24.30;64.00
39751;DHT22;37579;51.074;17.004;2022-09-14T03:54:16;24.30;62.80
39751;DHT22;37579;51.074;17.004;2022-09-14T03:56:42;24.30;65.40
39751;DHT22;37579;51.074;17.004;2022-09-14T03:59:08;24.30;63.10
39751;DHT22;37579;51.074;17.004;2022-09-14T04:01:35;24.30;62.70
39751;DHT22;37579;51.074;17.004;2022-09-14T04:04:01;24.20;62.60
39751;DHT22;37579;51.074;17.004;2022-09-14T04:06:26;24.30;62.80
39751;DHT22;37579;51.074;17.004;2022-09-14T04:08:53;24.30;63.90
39751;DHT22;37579;51.074;17.004;2022-09-14T04:11:23;24.20;61.90
39751;DHT22;37579;51.074;17.004;2022-09-14T04:13:50;24.20;62.40
39751;DHT22;37579;51.074;17.004;2022-09-14T04:16:17;24.20;62.40
39751;DHT22;37579;51.074;17.004;2022-09-14T04:18:43;24.20;62.40
39751;DHT22;37579;51.074;17.004;2022-09-14T04:21:17;24.20;62.50
39751;DHT22;37579;51.074;17.004;2022-09-14T04:23:43;24.20;62.50
39751;DHT22;37579;51.074;17.004;2022-09-14T04:26:16;24.20;62.50
39751;DHT22;37579;51.074;17.004;2022-09-14T04:28:43;24.20;62.50
39751;DHT22;37579;51.074;17.004;2022-09-14T04:31:10;24.20;62.40
39751;DHT22;37579;51.074;17.004;2022-09-14T04:33:37;24.20;62.30
39751;DHT22;37579;51.074;17.004;2022-09-14T04:36:06;24.20;62.30
39751;DHT22;37579;51.074;17.004;2022-09-14T04:38:33;24.20;62.30
39751;DHT22;37579;51.074;17.004;2022-09-14T04:40:59;24.20;62.30
39751;DHT22;37579;51.074;17.004;2022-09-14T04:43:25;24.20;62.30
39751;DHT22;37579;51.074;17.004;2022-09-14T04:45:52;24.20;62.30
39751;DHT22;37579;51.074;17.004;2022-09-14T04:48:18;24.20;62.40
39751;DHT22;37579;51.074;17.004;2022-09-14T04:50:44;24.20;62.40
39751;DHT22;37579;51.074;17.004;2022-09-14T04:53:11;24.20;62.50
39751;DHT22;37579;51.074;17.004;2022-09-14T04:55:36;24.20;63.00
39751;DHT22;37579;51.074;17.004;2022-09-14T04:58:03;24.20;62.30
39751;DHT22;37579;51.074;17.004;2022-09-14T05:00:29;24.20;62.40
39751;DHT22;37579;51.074;17.004;2022-09-14T05:02:54;24.20;62.40
39751;DHT22;37579;51.074;17.004;2022-09-14T05:05:20;24.20;62.40
39751;DHT22;37579;51.074;17.004;2022-09-14T05:07:46;24.20;62.30
39751;DHT22;37579;51.074;17.004;2022-09-14T05:10:11;24.20;62.30
39751;DHT22;37579;51.074;17.004;2022-09-14T05:12:37;24.20;62.40
39751;DHT22;37579;51.074;17.004;2022-09-14T05:15:03;24.20;62.30
39751;DHT22;37579;51.074;17.004;2022-09-14T05:17:33;24.20;62.30
39751;DHT22;37579;51.074;17.004;2022-09-14T05:19:59;24.30;62.00
39751;DHT22;37579;51.074;17.004;2022-09-14T05:22:25;24.30;62.20
39751;DHT22;37579;51.074;17.004;2022-09-14T05:24:51;24.40;62.40
39751;DHT22;37579;51.074;17.004;2022-09-14T05:27:16;24.30;62.50
39751;DHT22;37579;51.074;17.004;2022-09-14T05:29:42;24.50;62.30
39751;DHT22;37579;51.074;17.004;2022-09-14T05:32:08;24.50;62.70
39751;DHT22;37579;51.074;17.004;2022-09-14T05:34:33;24.50;62.80
39751;DHT22;37579;51.074;17.004;2022-09-14T05:36:59;24.40;63.00
39751;DHT22;37579;51.074;17.004;2022-09-14T05:39:25;24.40;63.00
39751;DHT22;37579;51.074;17.004;2022-09-14T05:41:51;24.40;62.90
39751;DHT22;37579;51.074;17.004;2022-09-14T05:44:17;24.30;62.90
39751;DHT22;37579;51.074;17.004;2022-09-14T05:46:42;24.30;63.00
39751;DHT22;37579;51.074;17.004;2022-09-14T05:49:08;24.30;62.80
39751;DHT22;37579;51.074;17.004;2022-09-14T05:51:34;24.30;63.20
39751;DHT22;37579;51.074;17.004;2022-09-14T05:54:00;24.40;62.70
39751;DHT22;37579;51.074;17.004;2022-09-14T05:56:28;24.30;62.80
39751;DHT22;37579;51.074;17.004;2022-09-14T05:58:54;24.30;62.90
39751;DHT22;37579;51.074;17.004;2022-09-14T06:01:21;24.30;62.70
39751;DHT22;37579;51.074;17.004;2022-09-14T06:03:48;24.30;62.90
39751;DHT22;37579;51.074;17.004;2022-09-14T06:06:16;24.30;62.80
39751;DHT22;37579;51.074;17.004;2022-09-14T06:08:42;24.30;63.00
39751;DHT22;37579;51.074;17.004;2022-09-14T06:11:14;24.30;62.80
39751;DHT22;37579;51.074;17.004;2022-09-14T06:13:40;24.40;62.40
39751;DHT22;37579;51.074;17.004;2022-09-14T06:16:09;24.40;62.60
39751;DHT22;37579;51.074;17.004;2022-09-14T06:18:37;24.30;62.60
39751;DHT22;37579;51.074;17.004;2022-09-14T06:21:03;24.40;62.70
39751;DHT22;37579;51.074;17.004;2022-09-14T06:23:30;24.30;62.30
39751;DHT22;37579;51.074;17.004;2022-09-14T06:25:58;24.30;62.50
39751;DHT22;37579;51.074;17.004;2022-09-14T06:28:25;24.30;62.60
39751;DHT22;37579;51.074;17.004;2022-09-14T06:30:51;24.10;60.60
39751;DHT22;37579;51.074;17.004;2022-09-14T06:33:18;24.00;61.60
39751;DHT22;37579;51.074;17.004;2022-09-14T06:35:58;24.10;62.00
39751;DHT22;37579;51.074;17.004;2022-09-14T06:38:24;24.20;62.30
39751;DHT22;37579;51.074;17.004;2022-09-14T06:40:55;24.30;62.30
39751;DHT22;37579;51.074;17.004;2022-09-14T06:43:26;24.40;62.00
39751;DHT22;37579;51.074;17.004;2022-09-14T06:46:01;24.50;61.70
39751;DHT22;37579;51.074;17.004;2022-09-14T06:48:30;24.60;61.60
39751;DHT22;37579;51.074;17.004;2022-09-14T06:50:56;24.60;61.70
39751;DHT22;37579;51.074;17.004;2022-09-14T06:53:22;24.60;62.70
39751;DHT22;37579;51.074;17.004;2022-09-14T06:55:48;24.60;62.30
39751;DHT22;37579;51.074;17.004;2022-09-14T06:58:14;24.50;62.40
39751;DHT22;37579;51.074;17.004;2022-09-14T07:00:40;24.60;61.90
39751;DHT22;37579;51.074;17.004;2022-09-14T07:03:07;24.70;61.70
39751;DHT22;37579;51.074;17.004;2022-09-14T07:05:33;24.70;61.60
39751;DHT22;37579;51.074;17.004;2022-09-14T07:07:59;24.70;61.60
39751;DHT22;37579;51.074;17.004;2022-09-14T07:10:25;24.60;62.70
39751;DHT22;37579;51.074;17.004;2022-09-14T07:12:53;24.60;62.50
39751;DHT22;37579;51.074;17.004;2022-09-14T07:15:20;24.60;62.20
39751;DHT22;37579;51.074;17.004;2022-09-14T07:17:46;24.70;62.20
39751;DHT22;37579;51.074;17.004;2022-09-14T07:20:12;24.70;62.10
39751;DHT22;37579;51.074;17.004;2022-09-14T07:22:40;24.70;62.10
39751;DHT22;37579;51.074;17.004;2022-09-14T07:25:06;24.60;62.10
39751;DHT22;37579;51.074;17.004;2022-09-14T07:27:32;24.70;61.90
39751;DHT22;37579;51.074;17.004;2022-09-14T07:29:58;24.80;62.00
39751;DHT22;37579;51.074;17.004;2022-09-14T07:32:24;24.80;62.30
39751;DHT22;37579;51.074;17.004;2022-09-14T07:34:50;24.80;62.30
39751;DHT22;37579;51.074;17.004;2022-09-14T07:37:16;24.80;62.40
39751;DHT22;37579;51.074;17.004;2022-09-14T07:39:41;24.90;62.40
39751;DHT22;37579;51.074;17.004;2022-09-14T07:42:07;24.90;62.70
39751;DHT22;37579;51.074;17.004;2022-09-14T07:44:33;25.00;63.00
39751;DHT22;37579;51.074;17.004;2022-09-14T07:46:59;24.90;62.40
39751;DHT22;37579;51.074;17.004;2022-09-14T07:49:24;24.90;62.50
39751;DHT22;37579;51.074;17.004;2022-09-14T07:51:51;24.90;62.70
39751;DHT22;37579;51.074;17.004;2022-09-14T07:54:17;24.90;62.40
39751;DHT22;37579;51.074;17.004;2022-09-14T07:56:44;24.90;62.60
39751;DHT22;37579;51.074;17.004;2022-09-14T07:59:11;24.90;62.90
39751;DHT22;37579;51.074;17.004;2022-09-14T08:01:38;24.90;62.80
39751;DHT22;37579;51.074;17.004;2022-09-14T08:04:04;24.80;63.00
39751;DHT22;37579;51.074;17.004;2022-09-14T08:06:31;24.90;62.70
39751;DHT22;37579;51.074;17.004;2022-09-14T08:08:57;24.90;62.90
39751;DHT22;37579;51.074;17.004;2022-09-14T08:11:24;25.00;62.50
39751;DHT22;37579;51.074;17.004;2022-09-14T08:13:52;25.10;62.60
39751;DHT22;37579;51.074;17.004;2022-09-14T08:16:19;25.10;62.00
39751;DHT22;37579;51.074;17.004;2022-09-14T08:18:45;25.20;61.90
39751;DHT22;37579;51.074;17.004;2022-09-14T08:21:15;25.20;61.90
39751;DHT22;37579;51.074;17.004;2022-09-14T08:23:42;25.20;61.80
39751;DHT22;37579;51.074;17.004;2022-09-14T08:26:11;25.20;61.80
39751;DHT22;37579;51.074;17.004;2022-09-14T08:28:38;25.20;61.80
39751;DHT22;37579;51.074;17.004;2022-09-14T08:31:18;25.30;61.70
39751;DHT22;37579;51.074;17.004;2022-09-14T08:33:54;25.20;61.60
39751;DHT22;37579;51.074;17.004;2022-09-14T08:36:21;25.40;61.60
39751;DHT22;37579;51.074;17.004;2022-09-14T08:38:47;25.30;61.50
39751;DHT22;37579;51.074;17.004;2022-09-14T08:44:28;25.50;61.40
39751;DHT22;37579;51.074;17.004;2022-09-14T08:52:36;25.60;61.00
39751;DHT22;37579;51.074;17.004;2022-09-14T08:55:31;25.60;61.20
39751;DHT22;37579;51.074;17.004;2022-09-14T08:58:26;25.50;61.10
39751;DHT22;37579;51.074;17.004;2022-09-14T09:01:25;25.50;61.00
39751;DHT22;37579;51.074;17.004;2022-09-14T09:12:03;25.70;60.90
39751;DHT22;37579;51.074;17.004;2022-09-14T09:14:42;25.60;61.10
39751;DHT22;37579;51.074;17.004;2022-09-14T09:20:16;25.50;60.60
39751;DHT22;37579;51.074;17.004;2022-09-14T09:23:04;25.40;60.90
39751;DHT22;37579;51.074;17.004;2022-09-14T09:25:56;25.30;61.20
39751;DHT22;37579;51.074;17.004;2022-09-14T09:28:25;25.30;61.40
39751;DHT22;37579;51.074;17.004;2022-09-14T09:30:52;25.20;61.70
39751;DHT22;37579;51.074;17.004;2022-09-14T09:33:25;25.20;61.70
39751;DHT22;37579;51.074;17.004;2022-09-14T09:36:13;25.30;61.60
39751;DHT22;37579;51.074;17.004;2022-09-14T09:38:40;25.30;61.50
39751;DHT22;37579;51.074;17.004;2022-09-14T09:41:20;25.20;61.60
39751;DHT22;37579;51.074;17.004;2022-09-14T09:44:04;25.20;61.50
39751;DHT22;37579;51.074;17.004;2022-09-14T09:49:38;25.20;61.40
39751;DHT22;37579;51.074;17.004;2022-09-14T09:52:13;25.30;61.40
39751;DHT22;37579;51.074;17.004;2022-09-14T09:54:41;25.30;61.30
39751;DHT22;37579;51.074;17.004;2022-09-14T09:57:26;25.40;61.00
39751;DHT22;37579;51.074;17.004;2022-09-14T10:02:39;25.60;61.10
39751;DHT22;37579;51.074;17.004;2022-09-14T10:07:42;25.60;61.00
39751;DHT22;37579;51.074;17.004;2022-09-14T10:10:17;25.50;61.00
39751;DHT22;37579;51.074;17.004;2022-09-14T10:12:51;25.50;61.50
39751;DHT22;37579;51.074;17.004;2022-09-14T10:15:21;25.60;61.30
39751;DHT22;37579;51.074;17.004;2022-09-14T10:20:40;25.60;61.00
39751;DHT22;37579;51.074;17.004;2022-09-14T10:23:27;25.60;60.50
39751;DHT22;37579;51.074;17.004;2022-09-14T10:28:44;25.60;60.50
39751;DHT22;37579;51.074;17.004;2022-09-14T10:33:40;25.60;60.40
39751;DHT22;37579;51.074;17.004;2022-09-14T10:44:17;25.60;59.70
39751;DHT22;37579;51.074;17.004;2022-09-14T11:03:40;25.40;59.30
39751;DHT22;37579;51.074;17.004;2022-09-14T11:09:18;25.50;58.70
39751;DHT22;37579;51.074;17.004;2022-09-14T11:11:57;25.50;58.70
39751;DHT22;37579;51.074;17.004;2022-09-14T11:23:18;25.60;60.00
39751;DHT22;37579;51.074;17.004;2022-09-14T11:25:58;25.60;59.00
39751;DHT22;37579;51.074;17.004;2022-09-14T11:28:30;25.70;59.80
39751;DHT22;37579;51.074;17.004;2022-09-14T11:31:19;25.70;59.70
39751;DHT22;37579;51.074;17.004;2022-09-14T11:36:39;25.60;60.20
39751;DHT22;37579;51.074;17.004;2022-09-14T11:39:19;25.60;60.50
39751;DHT22;37579;51.074;17.004;2022-09-14T11:41:48;25.60;60.40
39751;DHT22;37579;51.074;17.004;2022-09-14T11:44:21;25.60;60.30
39751;DHT22;37579;51.074;17.004;2022-09-14T11:46:54;25.70;60.50
39751;DHT22;37579;51.074;17.004;2022-09-14T11:52:06;25.70;60.40
39751;DHT22;37579;51.074;17.004;2022-09-14T11:54:38;25.60;60.00
39751;DHT22;37579;51.074;17.004;2022-09-14T11:57:05;25.50;60.60
39751;DHT22;37579;51.074;17.004;2022-09-14T12:12:57;25.50;60.10
39751;DHT22;37579;51.074;17.004;2022-09-14T12:15:43;25.50;60.00
39751;DHT22;37579;51.074;17.004;2022-09-14T12:20:43;24.90;58.10
39751;DHT22;37579;51.074;17.004;2022-09-14T12:36:00;24.20;59.80
39751;DHT22;37579;51.074;17.004;2022-09-14T12:46:10;24.70;59.90
39751;DHT22;37579;51.074;17.004;2022-09-14T12:49:02;24.80;59.00
39751;DHT22;37579;51.074;17.004;2022-09-14T12:51:31;24.90;58.20
39751;DHT22;37579;51.074;17.004;2022-09-14T13:04:27;25.20;58.90
39751;DHT22;37579;51.074;17.004;2022-09-14T13:06:55;25.30;58.90
39751;DHT22;37579;51.074;17.004;2022-09-14T13:09:26;25.20;59.10
39751;DHT22;37579;51.074;17.004;2022-09-14T13:12:02;25.20;59.10
39751;DHT22;37579;51.074;17.004;2022-09-14T13:14:50;25.40;59.10
39751;DHT22;37579;51.074;17.004;2022-09-14T13:17:18;25.40;59.00
39751;DHT22;37579;51.074;17.004;2022-09-14T13:19:53;25.40;59.20
39751;DHT22;37579;51.074;17.004;2022-09-14T13:22:23;25.40;59.20
39751;DHT22;37579;51.074;17.004;2022-09-14T13:24:50;25.40;59.20
39751;DHT22;37579;51.074;17.004;2022-09-14T13:30:19;25.40;59.10
39751;DHT22;37579;51.074;17.004;2022-09-14T13:32:49;25.40;59.60
39751;DHT22;37579;51.074;17.004;2022-09-14T13:35:44;25.40;59.60
39751;DHT22;37579;51.074;17.004;2022-09-14T13:38:24;25.40;59.90
39751;DHT22;37579;51.074;17.004;2022-09-14T13:40:54;25.50;60.00
39751;DHT22;37579;51.074;17.004;2022-09-14T13:43:21;25.50;59.70
39751;DHT22;37579;51.074;17.004;2022-09-14T13:45:48;25.50;59.80
39751;DHT22;37579;51.074;17.004;2022-09-14T13:48:15;25.50;59.90
39751;DHT22;37579;51.074;17.004;2022-09-14T13:50:47;25.50;59.90
39751;DHT22;37579;51.074;17.004;2022-09-14T13:53:45;25.50;59.90
39751;DHT22;37579;51.074;17.004;2022-09-14T13:56:26;25.60;60.00
39751;DHT22;37579;51.074;17.004;2022-09-14T14:04:32;25.60;60.00
39751;DHT22;37579;51.074;17.004;2022-09-14T14:09:41;25.50;60.10
39751;DHT22;37579;51.074;17.004;2022-09-14T14:12:09;25.40;60.30
39751;DHT22;37579;51.074;17.004;2022-09-14T14:14:36;25.40;60.60
39751;DHT22;37579;51.074;17.004;2022-09-14T14:19:59;25.30;60.50
39751;DHT22;37579;51.074;17.004;2022-09-14T14:22:32;25.30;59.70
39751;DHT22;37579;51.074;17.004;2022-09-14T14:24:59;25.20;60.50
39751;DHT22;37579;51.074;17.004;2022-09-14T14:27:36;25.20;60.70
39751;DHT22;37579;51.074;17.004;2022-09-14T14:30:13;25.20;60.80
39751;DHT22;37579;51.074;17.004;2022-09-14T14:32:40;25.10;60.80
39751;DHT22;37579;51.074;17.004;2022-09-14T14:35:16;25.10;60.90
39751;DHT22;37579;51.074;17.004;2022-09-14T14:37:44;25.20;61.10
39751;DHT22;37579;51.074;17.004;2022-09-14T14:40:11;25.20;61.20
39751;DHT22;37579;51.074;17.004;2022-09-14T14:42:37;25.20;60.80
39751;DHT22;37579;51.074;17.004;2022-09-14T14:45:04;25.20;61.20
39751;DHT22;37579;51.074;17.004;2022-09-14T14:47:30;25.30;61.00
39751;DHT22;37579;51.074;17.004;2022-09-14T14:49:56;25.30;61.00
39751;DHT22;37579;51.074;17.004;2022-09-14T14:52:22;25.30;61.20
39751;DHT22;37579;51.074;17.004;2022-09-14T14:54:48;25.30;61.30
39751;DHT22;37579;51.074;17.004;2022-09-14T14:57:14;25.30;61.20
39751;DHT22;37579;51.074;17.004;2022-09-14T14:59:40;25.30;61.30
39751;DHT22;37579;51.074;17.004;2022-09-14T15:02:07;25.40;61.30
39751;DHT22;37579;51.074;17.004;2022-09-14T15:04:33;25.40;61.20
39751;DHT22;37579;51.074;17.004;2022-09-14T15:06:59;25.40;61.10
39751;DHT22;37579;51.074;17.004;2022-09-14T15:09:27;25.40;61.20
39751;DHT22;37579;51.074;17.004;2022-09-14T15:11:54;25.40;61.30
39751;DHT22;37579;51.074;17.004;2022-09-14T15:14:23;25.40;61.10
39751;DHT22;37579;51.074;17.004;2022-09-14T15:16:50;25.40;60.60
39751;DHT22;37579;51.074;17.004;2022-09-14T15:19:16;25.50;61.70
39751;DHT22;37579;51.074;17.004;2022-09-14T15:21:42;25.50;60.80
39751;DHT22;37579;51.074;17.004;2022-09-14T15:24:09;25.50;60.50
39751;DHT22;37579;51.074;17.004;2022-09-14T15:26:36;25.50;61.50
39751;DHT22;37579;51.074;17.004;2022-09-14T15:29:03;25.50;60.90
39751;DHT22;37579;51.074;17.004;2022-09-14T15:31:29;25.60;60.70
39751;DHT22;37579;51.074;17.004;2022-09-14T15:33:55;25.50;60.70
39751;DHT22;37579;51.074;17.004;2022-09-14T15:36:40;25.50;61.00
39751;DHT22;37579;51.074;17.004;2022-09-14T15:39:10;25.50;61.00
39751;DHT22;37579;51.074;17.004;2022-09-14T15:41:36;25.50;61.00
39751;DHT22;37579;51.074;17.004;2022-09-14T15:44:02;25.50;60.90
39751;DHT22;37579;51.074;17.004;2022-09-14T15:46:29;25.40;61.10
39751;DHT22;37579;51.074;17.004;2022-09-14T15:48:54;25.40;61.50
39751;DHT22;37579;51.074;17.004;2022-09-14T15:51:20;25.30;61.70
39751;DHT22;37579;51.074;17.004;2022-09-14T15:53:46;25.20;61.80
39751;DHT22;37579;51.074;17.004;2022-09-14T15:56:13;25.30;62.00
39751;DHT22;37579;51.074;17.004;2022-09-14T15:58:39;25.40;61.50
39751;DHT22;37579;51.074;17.004;2022-09-14T16:01:10;25.40;61.70
39751;DHT22;37579;51.074;17.004;2022-09-14T16:03:36;25.40;61.50
39751;DHT22;37579;51.074;17.004;2022-09-14T16:06:02;25.50;61.70
39751;DHT22;37579;51.074;17.004;2022-09-14T16:08:28;25.50;61.90
39751;DHT22;37579;51.074;17.004;2022-09-14T16:10:59;25.60;61.60
39751;DHT22;37579;51.074;17.004;2022-09-14T16:13:25;25.60;61.70
39751;DHT22;37579;51.074;17.004;2022-09-14T16:16:00;25.60;62.00
39751;DHT22;37579;51.074;17.004;2022-09-14T16:18:27;25.60;61.80
39751;DHT22;37579;51.074;17.004;2022-09-14T16:20:53;25.60;61.90
39751;DHT22;37579;51.074;17.004;2022-09-14T16:23:18;25.60;62.00
39751;DHT22;37579;51.074;17.004;2022-09-14T16:25:44;25.70;61.80
39751;DHT22;37579;51.074;17.004;2022-09-14T16:28:10;25.70;61.80
39751;DHT22;37579;51.074;17.004;2022-09-14T16:30:36;25.80;62.10
39751;DHT22;37579;51.074;17.004;2022-09-14T16:33:01;25.80;61.90
39751;DHT22;37579;51.074;17.004;2022-09-14T16:35:27;25.70;62.10
39751;DHT22;37579;51.074;17.004;2022-09-14T16:37:53;25.90;62.30
39751;DHT22;37579;51.074;17.004;2022-09-14T16:40:19;25.80;62.00
39751;DHT22;37579;51.074;17.004;2022-09-14T16:42:45;25.90;62.50
39751;DHT22;37579;51.074;17.004;2022-09-14T16:45:12;25.90;62.30
39751;DHT22;37579;51.074;17.004;2022-09-14T16:47:38;25.90;62.10
39751;DHT22;37579;51.074;17.004;2022-09-14T16:50:04;26.00;62.30
39751;DHT22;37579;51.074;17.004;2022-09-14T16:52:30;25.90;62.00
39751;DHT22;37579;51.074;17.004;2022-09-14T16:54:56;25.90;62.50
39751;DHT22;37579;51.074;17.004;2022-09-14T16:57:22;25.90;62.60
39751;DHT22;37579;51.074;17.004;2022-09-14T16:59:51;25.90;62.50
39751;DHT22;37579;51.074;17.004;2022-09-14T17:02:17;26.00;62.40
39751;DHT22;37579;51.074;17.004;2022-09-14T17:04:42;26.00;62.90
39751;DHT22;37579;51.074;17.004;2022-09-14T17:07:08;26.00;63.20
39751;DHT22;37579;51.074;17.004;2022-09-14T17:09:34;25.90;63.00
39751;DHT22;37579;51.074;17.004;2022-09-14T17:12:00;26.00;62.90
39751;DHT22;37579;51.074;17.004;2022-09-14T17:14:29;26.00;63.30
39751;DHT22;37579;51.074;17.004;2022-09-14T17:16:55;26.00;63.20
39751;DHT22;37579;51.074;17.004;2022-09-14T17:22:06;25.90;63.30
39751;DHT22;37579;51.074;17.004;2022-09-14T17:24:32;25.90;63.10
39751;DHT22;37579;51.074;17.004;2022-09-14T17:26:58;26.00;63.00
39751;DHT22;37579;51.074;17.004;2022-09-14T17:29:23;26.00;63.30
39751;DHT22;37579;51.074;17.004;2022-09-14T17:31:49;26.00;63.20
39751;DHT22;37579;51.074;17.004;2022-09-14T17:34:15;26.00;63.00
39751;DHT22;37579;51.074;17.004;2022-09-14T17:36:41;25.90;63.80
39751;DHT22;37579;51.074;17.004;2022-09-14T17:39:08;26.00;63.20
39751;DHT22;37579;51.074;17.004;2022-09-14T17:41:34;26.00;63.10
39751;DHT22;37579;51.074;17.004;2022-09-14T17:44:03;25.90;63.00
39751;DHT22;37579;51.074;17.004;2022-09-14T17:46:30;25.90;63.10
39751;DHT22;37579;51.074;17.004;2022-09-14T17:48:57;26.00;62.90
39751;DHT22;37579;51.074;17.004;2022-09-14T17:51:25;26.10;62.80
39751;DHT22;37579;51.074;17.004;2022-09-14T17:53:53;26.00;62.90
39751;DHT22;37579;51.074;17.004;2022-09-14T17:56:21;25.90;63.00
39751;DHT22;37579;51.074;17.004;2022-09-14T17:58:48;25.90;63.10
39751;DHT22;37579;51.074;17.004;2022-09-14T18:01:19;25.90;63.30
39751;DHT22;37579;51.074;17.004;2022-09-14T18:03:51;26.00;62.90
39751;DHT22;37579;51.074;17.004;2022-09-14T18:06:18;26.00;62.90
39751;DHT22;37579;51.074;17.004;2022-09-14T18:08:45;26.10;63.00
39751;DHT22;37579;51.074;17.004;2022-09-14T18:11:15;26.00;62.80
39751;DHT22;37579;51.074;17.004;2022-09-14T18:13:42;26.10;62.90
39751;DHT22;37579;51.074;17.004;2022-09-14T18:16:09;26.00;63.20
39751;DHT22;37579;51.074;17.004;2022-09-14T18:18:35;26.00;63.20
39751;DHT22;37579;51.074;17.004;2022-09-14T18:21:02;26.00;63.10
39751;DHT22;37579;51.074;17.004;2022-09-14T18:23:29;26.00;63.30